sensor_id;sensor_type;location;lat;lon;timestamp;pressure;altitude;pressure_sealevel;temperature;humidity
41467;BME280;27205;53.690;19.948;2023-05-21T00:01:54;100912.63;;;13.33;57.50
41467;BME280;27205;53.690;19.948;2023-05-21T00:06:58;100905.33;;;13.24;57.53
41467;BME280;27205;53.690;19.948;2023-05-21T00:12:02;100896.20;;;13.22;58.03
41467;BME280;27205;53.690;19.948;2023-05-21T00:17:06;100896.90;;;13.17;58.51
41467;BME280;27205;53.690;19.948;2023-05-21T00:22:10;100903.46;;;13.15;58.62
41467;BME280;27205;53.690;19.948;2023-05-21T00:27:14;100914.91;;;13.10;59.16
41467;BME280;27205;53.690;19.948;2023-05-21T00:32:17;100916.55;;;13.05;59.52
41467;BME280;27205;53.690;19.948;2023-05-21T00:37:21;100917.02;;;13.00;59.38
41467;BME280;27205;53.690;19.948;2023-05-21T00:42:26;100917.29;;;12.99;59.70
41467;BME280;27205;53.690;19.948;2023-05-21T00:47:33;100913.42;;;13.00;59.87
41467;BME280;27205;53.690;19.948;2023-05-21T00:52:37;100915.05;;;12.97;60.39
41467;BME280;27205;53.690;19.948;2023-05-21T00:57:44;100913.77;;;12.95;60.41
41467;BME280;27205;53.690;19.948;2023-05-21T01:02:48;100909.89;;;12.95;60.87
41467;BME280;27205;53.690;19.948;2023-05-21T01:07:53;100903.93;;;12.95;60.90
41467;BME280;27205;53.690;19.948;2023-05-21T01:12:58;100903.57;;;12.94;60.94
41467;BME280;27205;53.690;19.948;2023-05-21T01:18:02;100898.55;;;12.96;61.11
41467;BME280;27205;53.690;19.948;2023-05-21T01:23:05;100891.36;;;12.98;61.22
41467;BME280;27205;53.690;19.948;2023-05-21T01:28:09;100889.39;;;13.03;61.44
41467;BME280;27205;53.690;19.948;2023-05-21T01:33:18;100888.98;;;13.07;61.81
41467;BME280;27205;53.690;19.948;2023-05-21T01:38:30;100887.38;;;13.11;61.91
41467;BME280;27205;53.690;19.948;2023-05-21T01:43:38;100886.85;;;13.12;61.81
41467;BME280;27205;53.690;19.948;2023-05-21T01:48:42;100890.14;;;13.11;62.14
41467;BME280;27205;53.690;19.948;2023-05-21T01:53:46;100894.48;;;13.09;62.50
41467;BME280;27205;53.690;19.948;2023-05-21T01:58:51;100895.46;;;13.11;62.55
41467;BME280;27205;53.690;19.948;2023-05-21T02:03:55;100894.89;;;13.12;62.68
41467;BME280;27205;53.690;19.948;2023-05-21T02:09:00;100886.91;;;13.14;62.96
41467;BME280;27205;53.690;19.948;2023-05-21T02:14:03;100879.74;;;13.12;62.80
41467;BME280;27205;53.690;19.948;2023-05-21T02:19:07;100881.59;;;13.09;63.02
41467;BME280;27205;53.690;19.948;2023-05-21T02:24:12;100883.23;;;13.13;63.07
41467;BME280;27205;53.690;19.948;2023-05-21T02:29:16;100883.27;;;13.16;63.16
41467;BME280;27205;53.690;19.948;2023-05-21T02:34:20;100884.20;;;13.17;63.33
41467;BME280;27205;53.690;19.948;2023-05-21T02:39:24;100888.87;;;13.20;63.41
41467;BME280;27205;53.690;19.948;2023-05-21T02:44:29;100888.17;;;13.23;63.67
41467;BME280;27205;53.690;19.948;2023-05-21T02:49:32;100888.30;;;13.22;63.83
41467;BME280;27205;53.690;19.948;2023-05-21T02:54:36;100881.41;;;13.27;63.95
41467;BME280;27205;53.690;19.948;2023-05-21T02:59:40;100878.86;;;13.32;64.22
41467;BME280;27205;53.690;19.948;2023-05-21T03:04:43;100879.55;;;13.40;63.95
41467;BME280;27205;53.690;19.948;2023-05-21T03:09:51;100883.67;;;13.48;64.16
41467;BME280;27205;53.690;19.948;2023-05-21T03:14:54;100886.86;;;13.57;64.33
41467;BME280;27205;53.690;19.948;2023-05-21T03:19:58;100888.98;;;13.70;64.45
41467;BME280;27205;53.690;19.948;2023-05-21T03:25:02;100890.67;;;13.86;64.55
41467;BME280;27205;53.690;19.948;2023-05-21T03:30:07;100886.49;;;14.02;64.52
41467;BME280;27205;53.690;19.948;2023-05-21T03:35:11;100882.13;;;14.15;64.56
41467;BME280;27205;53.690;19.948;2023-05-21T03:40:15;100879.74;;;14.23;64.62
41467;BME280;27205;53.690;19.948;2023-05-21T03:45:18;100872.05;;;14.27;64.62
41467;BME280;27205;53.690;19.948;2023-05-21T03:50:22;100869.46;;;14.30;64.70
41467;BME280;27205;53.690;19.948;2023-05-21T03:55:26;100865.31;;;14.34;64.63
41467;BME280;27205;53.690;19.948;2023-05-21T04:00:29;100867.96;;;14.40;64.85
41467;BME280;27205;53.690;19.948;2023-05-21T04:05:34;100871.66;;;14.49;64.76
41467;BME280;27205;53.690;19.948;2023-05-21T04:10:39;100873.08;;;14.62;64.60
41467;BME280;27205;53.690;19.948;2023-05-21T04:15:42;100875.63;;;14.76;64.75
41467;BME280;27205;53.690;19.948;2023-05-21T04:20:47;100878.67;;;14.86;64.70
41467;BME280;27205;53.690;19.948;2023-05-21T04:25:52;100879.06;;;14.98;64.59
41467;BME280;27205;53.690;19.948;2023-05-21T04:30:56;100879.70;;;15.11;64.19
41467;BME280;27205;53.690;19.948;2023-05-21T04:35:59;100880.02;;;15.18;63.86
41467;BME280;27205;53.690;19.948;2023-05-21T04:41:03;100875.95;;;15.30;63.74
41467;BME280;27205;53.690;19.948;2023-05-21T04:46:07;100873.98;;;15.42;63.69
41467;BME280;27205;53.690;19.948;2023-05-21T04:51:11;100871.19;;;15.52;63.65
41467;BME280;27205;53.690;19.948;2023-05-21T04:56:17;100867.08;;;15.68;63.67
41467;BME280;27205;53.690;19.948;2023-05-21T05:01:21;100868.84;;;15.84;63.48
41467;BME280;27205;53.690;19.948;2023-05-21T05:06:26;100871.36;;;16.05;63.08
41467;BME280;27205;53.690;19.948;2023-05-21T05:11:29;100872.30;;;16.22;62.90
41467;BME280;27205;53.690;19.948;2023-05-21T05:16:33;100874.69;;;16.41;62.55
41467;BME280;27205;53.690;19.948;2023-05-21T05:21:37;100874.75;;;16.58;62.71
41467;BME280;27205;53.690;19.948;2023-05-21T05:26:41;100876.98;;;16.81;62.29
41467;BME280;27205;53.690;19.948;2023-05-21T05:31:44;100874.56;;;17.02;61.98
41467;BME280;27205;53.690;19.948;2023-05-21T05:36:48;100873.86;;;17.14;61.64
41467;BME280;27205;53.690;19.948;2023-05-21T05:41:51;100876.92;;;17.32;61.47
41467;BME280;27205;53.690;19.948;2023-05-21T05:46:55;100875.56;;;17.47;61.16
41467;BME280;27205;53.690;19.948;2023-05-21T05:51:59;100872.83;;;17.68;60.74
41467;BME280;27205;53.690;19.948;2023-05-21T05:57:03;100868.44;;;17.94;60.52
41467;BME280;27205;53.690;19.948;2023-05-21T06:02:06;100867.08;;;18.13;60.25
41467;BME280;27205;53.690;19.948;2023-05-21T06:07:10;100869.80;;;18.36;59.72
41467;BME280;27205;53.690;19.948;2023-05-21T06:12:14;100867.60;;;18.60;59.19
41467;BME280;27205;53.690;19.948;2023-05-21T06:17:18;100869.17;;;18.77;58.98
41467;BME280;27205;53.690;19.948;2023-05-21T06:22:21;100864.25;;;19.01;58.45
41467;BME280;27205;53.690;19.948;2023-05-21T06:27:27;100865.83;;;19.24;57.95
41467;BME280;27205;53.690;19.948;2023-05-21T06:32:31;100868.83;;;19.41;57.71
41467;BME280;27205;53.690;19.948;2023-05-21T06:37:34;100862.31;;;19.58;56.93
41467;BME280;27205;53.690;19.948;2023-05-21T06:42:38;100867.58;;;19.78;56.72
41467;BME280;27205;53.690;19.948;2023-05-21T06:47:41;100867.51;;;19.85;56.02
41467;BME280;27205;53.690;19.948;2023-05-21T06:52:45;100867.10;;;19.95;55.49
41467;BME280;27205;53.690;19.948;2023-05-21T06:57:48;100863.98;;;20.07;54.84
41467;BME280;27205;53.690;19.948;2023-05-21T07:02:52;100866.88;;;20.27;54.42
41467;BME280;27205;53.690;19.948;2023-05-21T07:07:56;100865.13;;;20.43;53.91
41467;BME280;27205;53.690;19.948;2023-05-21T07:13:00;100862.42;;;20.65;53.55
41467;BME280;27205;53.690;19.948;2023-05-21T07:18:03;100862.86;;;20.82;52.87
41467;BME280;27205;53.690;19.948;2023-05-21T07:23:07;100860.05;;;21.00;52.40
41467;BME280;27205;53.690;19.948;2023-05-21T07:28:10;100868.74;;;21.16;51.93
41467;BME280;27205;53.690;19.948;2023-05-21T07:33:14;100870.61;;;21.34;51.22
41467;BME280;27205;53.690;19.948;2023-05-21T07:38:18;100868.51;;;21.48;50.52
41467;BME280;27205;53.690;19.948;2023-05-21T07:43:22;100868.50;;;21.62;50.33
41467;BME280;27205;53.690;19.948;2023-05-21T07:48:26;100866.17;;;21.82;49.94
41467;BME280;27205;53.690;19.948;2023-05-21T07:53:29;100868.47;;;21.97;49.00
41467;BME280;27205;53.690;19.948;2023-05-21T07:58:34;100869.13;;;22.10;48.31
41467;BME280;27205;53.690;19.948;2023-05-21T08:03:38;100862.39;;;22.25;47.85
41467;BME280;27205;53.690;19.948;2023-05-21T08:08:42;100856.91;;;22.22;46.18
41467;BME280;27205;53.690;19.948;2023-05-21T08:13:45;100854.88;;;22.31;45.52
41467;BME280;27205;53.690;19.948;2023-05-21T08:18:49;100852.36;;;22.49;45.84
41467;BME280;27205;53.690;19.948;2023-05-21T08:23:53;100850.32;;;22.72;45.20
41467;BME280;27205;53.690;19.948;2023-05-21T08:28:57;100850.68;;;22.86;43.91
41467;BME280;27205;53.690;19.948;2023-05-21T08:34:01;100843.66;;;23.05;44.19
41467;BME280;27205;53.690;19.948;2023-05-21T08:39:05;100838.35;;;23.29;43.37
41467;BME280;27205;53.690;19.948;2023-05-21T08:44:11;100840.73;;;23.39;42.49
41467;BME280;27205;53.690;19.948;2023-05-21T08:49:16;100839.45;;;23.54;41.91
41467;BME280;27205;53.690;19.948;2023-05-21T08:54:21;100840.75;;;23.61;42.19
41467;BME280;27205;53.690;19.948;2023-05-21T08:59:25;100839.98;;;23.78;41.16
41467;BME280;27205;53.690;19.948;2023-05-21T09:04:30;100837.30;;;23.91;41.05
41467;BME280;27205;53.690;19.948;2023-05-21T09:09:42;100841.50;;;24.06;40.94
41467;BME280;27205;53.690;19.948;2023-05-21T09:14:49;100841.38;;;24.22;40.33
41467;BME280;27205;53.690;19.948;2023-05-21T09:20:13;100838.14;;;24.36;39.80
41467;BME280;27205;53.690;19.948;2023-05-21T09:25:25;100838.16;;;24.50;39.23
41467;BME280;27205;53.690;19.948;2023-05-21T09:30:30;100839.41;;;24.68;39.26
41467;BME280;27205;53.690;19.948;2023-05-21T09:35:44;100830.67;;;24.80;38.54
41467;BME280;27205;53.690;19.948;2023-05-21T09:40:48;100834.98;;;24.91;38.34
41467;BME280;27205;53.690;19.948;2023-05-21T09:45:56;100832.86;;;25.07;37.80
41467;BME280;27205;53.690;19.948;2023-05-21T09:51:14;100828.64;;;25.17;36.79
41467;BME280;27205;53.690;19.948;2023-05-21T09:56:23;100826.73;;;25.15;36.70
41467;BME280;27205;53.690;19.948;2023-05-21T10:01:27;100826.61;;;25.31;36.60
41467;BME280;27205;53.690;19.948;2023-05-21T10:06:37;100815.31;;;25.30;35.59
41467;BME280;27205;53.690;19.948;2023-05-21T10:11:45;100810.59;;;25.28;35.58
41467;BME280;27205;53.690;19.948;2023-05-21T10:16:53;100817.97;;;25.42;35.23
41467;BME280;27205;53.690;19.948;2023-05-21T10:21:57;100811.60;;;25.48;34.32
41467;BME280;27205;53.690;19.948;2023-05-21T10:27:04;100806.84;;;25.46;34.04
41467;BME280;27205;53.690;19.948;2023-05-21T10:32:10;100807.86;;;25.46;33.17
41467;BME280;27205;53.690;19.948;2023-05-21T10:37:15;100800.52;;;25.46;32.85
41467;BME280;27205;53.690;19.948;2023-05-21T10:53:32;100788.39;;;25.87;32.26
41467;BME280;27205;53.690;19.948;2023-05-21T11:04:10;100777.61;;;26.42;31.78
41467;BME280;27205;53.690;19.948;2023-05-21T11:09:14;100775.02;;;26.50;31.52
41467;BME280;27205;53.690;19.948;2023-05-21T11:19:42;100776.09;;;26.75;30.90
41467;BME280;27205;53.690;19.948;2023-05-21T11:24:46;100759.51;;;26.87;30.36
41467;BME280;27205;53.690;19.948;2023-05-21T11:29:54;100766.10;;;26.56;29.53
41467;BME280;27205;53.690;19.948;2023-05-21T11:35:00;100756.63;;;26.37;29.72
41467;BME280;27205;53.690;19.948;2023-05-21T11:40:18;100757.88;;;26.27;29.04
41467;BME280;27205;53.690;19.948;2023-05-21T11:45:26;100758.52;;;26.05;28.87
41467;BME280;27205;53.690;19.948;2023-05-21T11:50:30;100752.17;;;25.91;28.28
41467;BME280;27205;53.690;19.948;2023-05-21T11:55:39;100746.80;;;25.86;28.51
41467;BME280;27205;53.690;19.948;2023-05-21T12:00:49;100748.35;;;26.00;28.45
41467;BME280;27205;53.690;19.948;2023-05-21T12:05:53;100747.98;;;26.13;28.18
41467;BME280;27205;53.690;19.948;2023-05-21T12:10:58;100745.10;;;26.16;27.58
41467;BME280;27205;53.690;19.948;2023-05-21T12:16:02;100741.99;;;26.29;27.95
41467;BME280;27205;53.690;19.948;2023-05-21T12:21:09;100736.20;;;26.48;27.42
41467;BME280;27205;53.690;19.948;2023-05-21T12:26:14;100734.11;;;26.55;27.64
41467;BME280;27205;53.690;19.948;2023-05-21T12:31:19;100736.96;;;26.66;27.01
41467;BME280;27205;53.690;19.948;2023-05-21T12:36:28;100735.37;;;26.80;26.94
41467;BME280;27205;53.690;19.948;2023-05-21T12:41:32;100730.36;;;27.13;27.20
41467;BME280;27205;53.690;19.948;2023-05-21T12:46:36;100727.84;;;27.27;26.35
41467;BME280;27205;53.690;19.948;2023-05-21T12:51:39;100724.17;;;27.24;26.11
41467;BME280;27205;53.690;19.948;2023-05-21T12:56:44;100724.27;;;27.20;26.45
41467;BME280;27205;53.690;19.948;2023-05-21T13:01:48;100719.70;;;27.46;26.09
41467;BME280;27205;53.690;19.948;2023-05-21T13:06:51;100717.73;;;27.64;25.89
41467;BME280;27205;53.690;19.948;2023-05-21T13:11:55;100712.89;;;27.73;25.96
41467;BME280;27205;53.690;19.948;2023-05-21T13:16:59;100711.26;;;27.95;25.80
41467;BME280;27205;53.690;19.948;2023-05-21T13:22:03;100707.48;;;27.86;24.66
41467;BME280;27205;53.690;19.948;2023-05-21T13:27:06;100704.10;;;27.67;24.48
41467;BME280;27205;53.690;19.948;2023-05-21T13:32:10;100699.88;;;27.90;24.98
41467;BME280;27205;53.690;19.948;2023-05-21T13:37:14;100695.05;;;28.27;24.76
41467;BME280;27205;53.690;19.948;2023-05-21T13:42:17;100691.71;;;28.97;24.99
41467;BME280;27205;53.690;19.948;2023-05-21T13:47:21;100687.91;;;30.64;24.29
41467;BME280;27205;53.690;19.948;2023-05-21T13:52:25;100700.34;;;34.08;23.20
41467;BME280;27205;53.690;19.948;2023-05-21T13:57:29;100699.45;;;37.51;22.05
41467;BME280;27205;53.690;19.948;2023-05-21T14:02:33;100698.64;;;41.05;21.80
41467;BME280;27205;53.690;19.948;2023-05-21T14:07:37;100701.66;;;43.72;20.22
41467;BME280;27205;53.690;19.948;2023-05-21T14:12:42;100694.44;;;45.99;19.43
41467;BME280;27205;53.690;19.948;2023-05-21T14:17:48;100690.20;;;48.61;17.73
41467;BME280;27205;53.690;19.948;2023-05-21T14:22:51;100693.48;;;51.05;15.94
41467;BME280;27205;53.690;19.948;2023-05-21T14:27:55;100699.00;;;53.64;14.69
41467;BME280;27205;53.690;19.948;2023-05-21T14:32:59;100701.42;;;55.33;13.57
41467;BME280;27205;53.690;19.948;2023-05-21T14:38:03;100704.83;;;56.32;11.71
41467;BME280;27205;53.690;19.948;2023-05-21T14:43:07;100701.37;;;55.68;10.67
41467;BME280;27205;53.690;19.948;2023-05-21T14:48:11;100698.27;;;57.59;10.82
41467;BME280;27205;53.690;19.948;2023-05-21T14:53:14;100698.84;;;59.63;10.38
41467;BME280;27205;53.690;19.948;2023-05-21T14:58:18;100694.87;;;60.99;9.85
41467;BME280;27205;53.690;19.948;2023-05-21T15:03:22;100687.72;;;61.65;8.44
41467;BME280;27205;53.690;19.948;2023-05-21T15:08:26;100675.24;;;60.48;7.83
41467;BME280;27205;53.690;19.948;2023-05-21T15:13:29;100673.23;;;60.21;7.49
41467;BME280;27205;53.690;19.948;2023-05-21T15:18:33;100677.00;;;60.99;7.51
41467;BME280;27205;53.690;19.948;2023-05-21T15:23:36;100671.62;;;60.40;7.16
41467;BME280;27205;53.690;19.948;2023-05-21T15:28:40;100672.60;;;60.58;7.37
41467;BME280;27205;53.690;19.948;2023-05-21T15:33:44;100665.55;;;59.48;6.55
41467;BME280;27205;53.690;19.948;2023-05-21T15:38:47;100656.60;;;58.02;6.89
41467;BME280;27205;53.690;19.948;2023-05-21T15:43:51;100654.50;;;58.39;6.93
41467;BME280;27205;53.690;19.948;2023-05-21T15:48:54;100652.16;;;58.69;6.55
41467;BME280;27205;53.690;19.948;2023-05-21T15:53:58;100639.59;;;57.44;6.31
41467;BME280;27205;53.690;19.948;2023-05-21T15:59:02;100632.77;;;55.55;6.13
41467;BME280;27205;53.690;19.948;2023-05-21T16:04:06;100626.29;;;54.56;6.44
41467;BME280;27205;53.690;19.948;2023-05-21T16:09:10;100622.86;;;54.37;6.66
41467;BME280;27205;53.690;19.948;2023-05-21T16:14:13;100616.80;;;53.03;6.56
41467;BME280;27205;53.690;19.948;2023-05-21T16:19:17;100614.95;;;52.03;6.69
41467;BME280;27205;53.690;19.948;2023-05-21T16:24:20;100608.34;;;50.71;7.04
41467;BME280;27205;53.690;19.948;2023-05-21T16:29:24;100608.00;;;49.76;7.31
41467;BME280;27205;53.690;19.948;2023-05-21T16:34:28;100608.50;;;47.82;7.79
41467;BME280;27205;53.690;19.948;2023-05-21T16:39:31;100605.28;;;46.12;8.09
41467;BME280;27205;53.690;19.948;2023-05-21T16:44:35;100600.10;;;44.39;8.60
41467;BME280;27205;53.690;19.948;2023-05-21T16:49:40;100595.38;;;43.61;8.75
41467;BME280;27205;53.690;19.948;2023-05-21T16:54:43;100598.84;;;43.32;8.94
41467;BME280;27205;53.690;19.948;2023-05-21T16:59:50;100601.45;;;43.16;8.86
41467;BME280;27205;53.690;19.948;2023-05-21T17:04:54;100598.64;;;42.23;9.40
41467;BME280;27205;53.690;19.948;2023-05-21T17:09:58;100596.07;;;39.77;10.10
41467;BME280;27205;53.690;19.948;2023-05-21T17:15:01;100601.20;;;37.68;10.93
41467;BME280;27205;53.690;19.948;2023-05-21T17:20:06;100593.63;;;34.94;12.54
41467;BME280;27205;53.690;19.948;2023-05-21T17:25:10;100593.21;;;32.72;13.97
41467;BME280;27205;53.690;19.948;2023-05-21T17:30:14;100597.34;;;31.94;14.66
41467;BME280;27205;53.690;19.948;2023-05-21T17:35:17;100596.60;;;32.89;14.67
41467;BME280;27205;53.690;19.948;2023-05-21T17:40:21;100597.84;;;33.51;14.70
41467;BME280;27205;53.690;19.948;2023-05-21T17:45:27;100596.90;;;33.18;14.97
41467;BME280;27205;53.690;19.948;2023-05-21T17:50:30;100588.45;;;32.07;15.63
41467;BME280;27205;53.690;19.948;2023-05-21T17:55:34;100586.41;;;30.62;16.01
41467;BME280;27205;53.690;19.948;2023-05-21T18:00:38;100587.24;;;30.17;17.14
41467;BME280;27205;53.690;19.948;2023-05-21T18:05:41;100587.40;;;29.43;17.09
41467;BME280;27205;53.690;19.948;2023-05-21T18:10:45;100585.05;;;28.85;17.53
41467;BME280;27205;53.690;19.948;2023-05-21T18:15:50;100594.30;;;28.35;17.77
41467;BME280;27205;53.690;19.948;2023-05-21T18:20:53;100596.95;;;27.54;18.29
41467;BME280;27205;53.690;19.948;2023-05-21T18:25:57;100599.95;;;26.45;18.98
41467;BME280;27205;53.690;19.948;2023-05-21T18:31:01;100599.83;;;25.04;20.16
41467;BME280;27205;53.690;19.948;2023-05-21T18:36:06;100602.44;;;23.92;20.93
41467;BME280;27205;53.690;19.948;2023-05-21T18:41:10;100606.84;;;23.02;21.89
41467;BME280;27205;53.690;19.948;2023-05-21T18:46:13;100612.00;;;22.25;22.52
41467;BME280;27205;53.690;19.948;2023-05-21T18:51:17;100612.86;;;21.61;23.23
41467;BME280;27205;53.690;19.948;2023-05-21T18:56:20;100614.33;;;21.08;23.58
41467;BME280;27205;53.690;19.948;2023-05-21T19:01:24;100613.61;;;20.65;23.97
41467;BME280;27205;53.690;19.948;2023-05-21T19:06:27;100612.70;;;20.29;23.98
41467;BME280;27205;53.690;19.948;2023-05-21T19:11:31;100612.03;;;19.98;24.34
41467;BME280;27205;53.690;19.948;2023-05-21T19:16:36;100615.94;;;19.70;24.73
41467;BME280;27205;53.690;19.948;2023-05-21T19:21:40;100616.64;;;19.41;24.96
41467;BME280;27205;53.690;19.948;2023-05-21T19:26:44;100618.55;;;19.13;25.71
41467;BME280;27205;53.690;19.948;2023-05-21T19:31:47;100616.37;;;18.86;25.62
41467;BME280;27205;53.690;19.948;2023-05-21T19:36:51;100617.35;;;18.58;25.75
41467;BME280;27205;53.690;19.948;2023-05-21T19:41:56;100609.82;;;18.34;26.29
41467;BME280;27205;53.690;19.948;2023-05-21T19:47:00;100614.42;;;18.10;26.50
41467;BME280;27205;53.690;19.948;2023-05-21T19:52:04;100605.87;;;17.85;27.21
41467;BME280;27205;53.690;19.948;2023-05-21T19:57:08;100603.27;;;17.63;27.40
41467;BME280;27205;53.690;19.948;2023-05-21T20:02:14;100597.53;;;17.41;27.81
41467;BME280;27205;53.690;19.948;2023-05-21T20:07:19;100595.23;;;17.16;28.28
41467;BME280;27205;53.690;19.948;2023-05-21T20:12:22;100590.34;;;16.93;28.56
41467;BME280;27205;53.690;19.948;2023-05-21T20:17:26;100588.79;;;16.72;28.91
41467;BME280;27205;53.690;19.948;2023-05-21T20:22:31;100593.93;;;16.55;29.19
41467;BME280;27205;53.690;19.948;2023-05-21T20:27:35;100591.78;;;16.39;29.72
41467;BME280;27205;53.690;19.948;2023-05-21T20:32:41;100591.25;;;16.19;30.11
41467;BME280;27205;53.690;19.948;2023-05-21T20:37:44;100593.34;;;16.00;30.48
41467;BME280;27205;53.690;19.948;2023-05-21T20:42:49;100603.11;;;15.81;30.99
41467;BME280;27205;53.690;19.948;2023-05-21T20:47:56;100607.52;;;15.61;31.66
41467;BME280;27205;53.690;19.948;2023-05-21T20:53:00;100612.42;;;15.40;32.26
41467;BME280;27205;53.690;19.948;2023-05-21T20:58:04;100614.34;;;15.21;32.69
41467;BME280;27205;53.690;19.948;2023-05-21T21:03:07;100614.23;;;15.07;32.50
41467;BME280;27205;53.690;19.948;2023-05-21T21:08:13;100613.80;;;14.91;32.88
41467;BME280;27205;53.690;19.948;2023-05-21T21:13:18;100613.03;;;14.75;33.22
41467;BME280;27205;53.690;19.948;2023-05-21T21:18:21;100610.94;;;14.64;33.42
41467;BME280;27205;53.690;19.948;2023-05-21T21:23:27;100614.73;;;14.49;33.57
41467;BME280;27205;53.690;19.948;2023-05-21T21:28:32;100610.75;;;14.33;33.91
41467;BME280;27205;53.690;19.948;2023-05-21T21:33:35;100611.89;;;14.18;34.21
41467;BME280;27205;53.690;19.948;2023-05-21T21:38:39;100605.11;;;14.05;34.73
41467;BME280;27205;53.690;19.948;2023-05-21T21:43:43;100608.25;;;14.01;35.10
41467;BME280;27205;53.690;19.948;2023-05-21T21:48:46;100613.88;;;13.94;34.91
41467;BME280;27205;53.690;19.948;2023-05-21T21:53:50;100610.41;;;13.81;35.27
41467;BME280;27205;53.690;19.948;2023-05-21T21:58:53;100612.28;;;13.68;35.68
41467;BME280;27205;53.690;19.948;2023-05-21T22:03:57;100616.95;;;13.58;35.88
41467;BME280;27205;53.690;19.948;2023-05-21T22:09:01;100614.40;;;13.49;36.40
41467;BME280;27205;53.690;19.948;2023-05-21T22:14:05;100615.20;;;13.41;36.84
41467;BME280;27205;53.690;19.948;2023-05-21T22:19:08;100613.52;;;13.40;38.16
41467;BME280;27205;53.690;19.948;2023-05-21T22:24:15;100606.83;;;13.38;37.97
41467;BME280;27205;53.690;19.948;2023-05-21T22:29:33;100604.89;;;13.31;38.25
41467;BME280;27205;53.690;19.948;2023-05-21T22:34:36;100603.59;;;13.27;38.60
41467;BME280;27205;53.690;19.948;2023-05-21T22:39:40;100606.66;;;13.22;39.19
41467;BME280;27205;53.690;19.948;2023-05-21T22:44:44;100602.70;;;13.18;39.05
41467;BME280;27205;53.690;19.948;2023-05-21T22:49:47;100599.79;;;13.13;39.54
41467;BME280;27205;53.690;19.948;2023-05-21T22:54:51;100600.42;;;13.10;40.10
41467;BME280;27205;53.690;19.948;2023-05-21T22:59:55;100592.31;;;13.05;39.65
41467;BME280;27205;53.690;19.948;2023-05-21T23:04:59;100589.98;;;12.99;39.57
41467;BME280;27205;53.690;19.948;2023-05-21T23:10:03;100591.38;;;12.90;39.80
41467;BME280;27205;53.690;19.948;2023-05-21T23:15:07;100592.88;;;12.77;40.04
41467;BME280;27205;53.690;19.948;2023-05-21T23:20:12;100583.39;;;12.62;40.36
41467;BME280;27205;53.690;19.948;2023-05-21T23:25:15;100577.70;;;12.49;40.67
41467;BME280;27205;53.690;19.948;2023-05-21T23:30:19;100576.80;;;12.36;40.78
41467;BME280;27205;53.690;19.948;2023-05-21T23:35:23;100572.23;;;12.24;41.07
41467;BME280;27205;53.690;19.948;2023-05-21T23:40:27;100579.98;;;12.12;41.02
41467;BME280;27205;53.690;19.948;2023-05-21T23:45:30;100580.81;;;11.99;41.34
41467;BME280;27205;53.690;19.948;2023-05-21T23:50:34;100577.17;;;11.88;41.52
41467;BME280;27205;53.690;19.948;2023-05-21T23:55:37;100575.92;;;11.79;42.09
